createdAt,value
2019-06-07T00:00:44.208Z,91.4
2019-06-07T00:01:43.505Z,91.6
2019-06-07T00:02:42.618Z,91.8
2019-06-07T00:03:42.084Z,91.9
2019-06-07T00:04:41.016Z,91.9
2019-06-07T00:05:40.307Z,92.4
2019-06-07T00:06:39.850Z,92.8
2019-06-07T00:07:39.262Z,93.5
2019-06-07T00:08:27.119Z,93.5
2019-06-07T00:09:14.522Z,93.9
2019-06-07T00:09:41.302Z,93.9
2019-06-07T00:10:37.561Z,93.8
2019-06-07T00:11:36.356Z,93.9
2019-06-07T00:12:35.177Z,93.9
2019-06-07T00:13:34.865Z,93.8
2019-06-07T00:14:33.761Z,94
2019-06-07T00:15:33.024Z,94.7
2019-06-07T00:16:32.317Z,94.4
2019-06-07T00:17:31.719Z,94.4
2019-06-07T00:18:31.112Z,94.4
2019-06-07T00:19:30.416Z,94.5
2019-06-07T00:20:29.323Z,94.7
2019-06-07T00:22:19.445Z,94.8
2019-06-07T00:22:35.425Z,94.8
2019-06-07T00:23:27.371Z,94.8
2019-06-07T00:23:57.773Z,94.8
2019-06-07T00:24:28.279Z,95.1
2019-06-07T00:25:25.944Z,95.3
2019-06-07T00:26:25.146Z,95.4
2019-06-07T00:27:24.553Z,95.4
2019-06-07T00:28:23.350Z,95.5
2019-06-07T00:37:12.647Z,95.5
2019-06-07T00:38:21.816Z,96.8
2019-06-07T00:39:25.466Z,96.5
2019-06-07T00:40:31.691Z,96.6
2019-06-07T00:40:45.244Z,96.6
2019-06-07T00:41:22.117Z,96.8
2019-06-07T00:42:20.619Z,96.8
2019-06-07T00:43:19.178Z,96.8
2019-06-07T00:43:43.415Z,96.8
2019-06-07T00:44:20.912Z,96.9
2019-06-07T00:44:44.164Z,96.9
2019-06-07T00:45:22.238Z,96.4
2019-06-07T00:45:45.517Z,96.4
2019-06-07T00:47:10.955Z,96.4
2019-06-07T00:47:40.240Z,96.4
2019-06-07T00:48:29.281Z,96.7
2019-06-07T00:49:35.539Z,96.4
2019-06-07T00:50:16.328Z,96.5
2019-06-07T00:51:06.654Z,96.5
2019-06-07T00:52:05.878Z,96.6
2019-06-07T00:53:27.287Z,96.6
2019-06-07T00:53:35.867Z,96.6
2019-06-07T00:54:06.554Z,96.9
2019-06-07T00:54:36.964Z,96.9
2019-06-07T00:55:07.634Z,97
2019-06-07T00:55:38.017Z,97
2019-06-07T00:57:02.165Z,97.1
2019-06-07T00:58:02.854Z,97.1
2019-06-07T00:59:14.994Z,97.2
2019-06-07T00:59:31.236Z,97.2
2019-06-07T01:00:01.520Z,97.4
2019-06-07T01:00:59.230Z,97.5
2019-06-07T01:01:58.434Z,97.5
2019-06-07T01:02:57.850Z,97.5
2019-06-07T01:03:28.498Z,97.5
2019-06-07T01:03:59.016Z,97.7
2019-06-07T01:04:29.496Z,97.7
2019-06-07T01:04:59.710Z,97.8
2019-06-07T01:05:31.930Z,97.8
2019-06-07T01:06:00.319Z,97.8
2019-06-07T01:06:30.829Z,97.8
2019-06-07T01:07:54.060Z,97.4
2019-06-07T01:08:53.362Z,97.3
2019-06-07T01:09:52.776Z,97.4
2019-06-07T01:10:54.526Z,97.4
2019-06-07T01:11:50.913Z,97.5
2019-06-07T01:12:50.199Z,97.5
2019-06-07T01:13:26.601Z,97.5
2019-06-07T01:13:51.380Z,97.5
2019-06-07T01:14:27.966Z,97.5
2019-06-07T01:14:52.133Z,97.5
2019-06-07T01:15:29.424Z,97.5
2019-06-07T01:15:52.786Z,97.6
2019-06-07T01:16:26.662Z,97.6
2019-06-07T01:17:20.058Z,97.6
2019-06-07T01:18:51.166Z,97.6
2019-06-07T01:19:45.100Z,97.6
2019-06-07T01:20:44.409Z,97.6
2019-06-07T01:21:43.809Z,97.5
2019-06-07T01:22:42.853Z,97.5
2019-06-07T01:24:11.262Z,97.5
2019-06-07T01:24:15.567Z,97.5
2019-06-07T01:24:45.091Z,97.3
2019-06-07T01:25:18.053Z,97.3
2019-06-07T01:25:45.817Z,96.8
2019-06-07T01:26:22.328Z,96.8
2019-06-07T01:26:46.433Z,96.8
2019-06-07T01:27:20.603Z,96.8
2019-06-07T01:28:38.599Z,97.2
2019-06-07T01:29:37.911Z,97.3
2019-06-07T01:30:36.766Z,97.4
2019-06-07T01:31:36.097Z,97.4
2019-06-07T01:32:35.480Z,97.1
2019-06-07T01:33:51.494Z,97
2019-06-07T01:34:05.151Z,97
2019-06-07T01:34:35.432Z,97
2019-06-07T01:35:05.817Z,97
2019-06-07T01:35:36.262Z,96.7
2019-06-07T01:36:06.692Z,96.7
2019-06-07T01:36:37.145Z,96.7
2019-06-07T01:37:07.664Z,96.7
2019-06-07T01:38:31.001Z,96.9
2019-06-07T01:39:32.235Z,96.9
2019-06-07T01:40:33.158Z,97
2019-06-07T01:41:31.131Z,97.1
2019-06-07T01:42:31.195Z,97.3
2019-06-07T01:43:31.294Z,97.3
2019-06-07T01:44:30.993Z,97.2
2019-06-07T01:44:56.647Z,97.2
2019-06-07T01:45:31.279Z,97.2
2019-06-07T01:45:57.796Z,97.2
2019-06-07T01:46:29.029Z,97.2
2019-06-07T01:46:58.411Z,97.2
2019-06-07T01:48:39.063Z,97.3
2019-06-07T01:48:53.767Z,97.3
2019-06-07T01:49:29.491Z,97.2
2019-06-07T01:50:27.116Z,97.2
2019-06-07T01:51:24.244Z,97.3
2019-06-07T01:51:51.624Z,97.3
2019-06-07T01:52:26.621Z,97.3
2019-06-07T01:53:25.872Z,97.3
2019-06-07T01:54:57.100Z,97.4
2019-06-07T01:55:01.130Z,97.4
2019-06-07T01:55:33.186Z,97.2
2019-06-07T01:56:20.440Z,96.5
2019-06-07T01:57:47.832Z,96.8
2019-06-07T01:58:26.452Z,97.1
2019-06-07T01:58:51.428Z,97.1
2019-06-07T01:59:24.846Z,97.2
2019-06-07T02:00:14.869Z,97.2
2019-06-07T02:01:13.475Z,97.2
2019-06-07T02:02:12.880Z,97.2
2019-06-07T02:03:12.289Z,97.2
2019-06-07T02:04:11.198Z,97.3
2019-06-07T02:05:10.487Z,97.4
2019-06-07T02:06:09.902Z,97.5
2019-06-07T02:06:40.134Z,97.5
2019-06-07T02:07:10.556Z,97.5
2019-06-07T02:08:08.139Z,97.5
2019-06-07T02:09:07.425Z,97.6
2019-06-07T02:10:06.767Z,97.6
2019-06-07T02:11:06.305Z,97.5
2019-06-07T02:11:36.802Z,97.5
2019-06-07T02:12:35.710Z,97.6
2019-06-07T02:14:03.902Z,97.8
2019-06-07T02:15:04.319Z,97.8
2019-06-07T02:16:02.126Z,97.8
2019-06-07T02:17:01.847Z,97.9
2019-06-07T02:18:00.839Z,97.7
2019-06-07T02:19:03.860Z,97.7
2019-06-07T02:20:58.697Z,97.6
2019-06-07T02:21:34.678Z,97.6
2019-06-07T02:21:59.621Z,97.8
2019-06-07T02:22:32.758Z,97.8
2019-06-07T02:23:56.490Z,98.1
2019-06-07T02:25:43.537Z,98.1
2019-06-07T02:25:52.476Z,98.1
2019-06-07T02:26:53.961Z,98.1
2019-06-07T02:28:29.698Z,98.2
2019-06-07T02:28:47.424Z,98.2
2019-06-07T02:29:51.551Z,98
2019-06-07T02:31:00.858Z,98.1
2019-06-07T02:31:27.067Z,98.1
2019-06-07T02:31:51.839Z,98.2
2019-06-07T02:32:29.649Z,98.2
2019-06-07T02:32:52.367Z,98.1
2019-06-07T02:33:30.991Z,98.1
2019-06-07T02:34:47.852Z,98.1
2019-06-07T02:35:47.275Z,98.1
2019-06-07T02:36:46.084Z,98.3
2019-06-07T02:37:45.810Z,98.3
2019-06-07T02:38:44.784Z,98.3
2019-06-07T02:39:44.200Z,98.4
2019-06-07T02:40:43.334Z,98.5
2019-06-07T02:41:14.071Z,98.5
2019-06-07T02:41:44.493Z,98.5
2019-06-07T02:42:14.889Z,98.5
2019-06-07T02:42:45.312Z,98.5
2019-06-07T02:43:15.704Z,98.5
2019-06-07T02:43:46.282Z,98.5
2019-06-07T02:44:16.679Z,98.5
2019-06-07T02:46:49.871Z,98.6
2019-06-07T02:47:38.795Z,98.5
2019-06-07T02:48:40.651Z,98.6
2019-06-07T02:49:42.482Z,98.5
2019-06-07T02:50:39.150Z,98.5
2019-06-07T02:51:06.357Z,98.5
2019-06-07T02:51:42.200Z,98.5
2019-06-07T02:52:07.252Z,98.5
2019-06-07T02:52:41.856Z,98.5
2019-06-07T02:53:08.202Z,98.5
2019-06-07T02:53:40.718Z,98.5
2019-06-07T02:54:09.103Z,98.5
2019-06-07T02:54:41.103Z,98.3
2019-06-07T02:55:09.963Z,98.3
2019-06-07T02:56:57.149Z,98.4
2019-06-07T02:57:01.689Z,98.4
2019-06-07T02:57:42.045Z,98.5
2019-06-07T02:58:40.656Z,98.5
2019-06-07T03:00:16.906Z,98.5
2019-06-07T03:01:11.290Z,98.5
2019-06-07T03:02:35.579Z,98.6
2019-06-07T03:02:56.689Z,98.6
2019-06-07T03:03:33.028Z,98.6
2019-06-07T03:03:57.388Z,98.6
2019-06-07T03:04:34.692Z,98.7
2019-06-07T03:04:57.976Z,98.7
2019-06-07T03:06:23.525Z,98.7
2019-06-07T03:07:22.589Z,98.6
2019-06-07T03:08:22.004Z,98.7
2019-06-07T03:09:21.317Z,98.8
2019-06-07T03:10:20.708Z,98.7
2019-06-07T03:11:19.868Z,98.8
2019-06-07T03:11:50.291Z,98.8
2019-06-07T03:12:20.577Z,98.8
2019-06-07T03:12:51.370Z,98.8
2019-06-07T03:13:21.753Z,98.8
2019-06-07T03:13:52.143Z,98.8
2019-06-07T03:14:22.443Z,98.8
2019-06-07T03:14:52.906Z,98.8
2019-06-07T03:16:15.763Z,98.8
2019-06-07T03:17:15.053Z,98.9
2019-06-07T03:18:14.493Z,98.9
2019-06-07T03:19:13.740Z,98.9
2019-06-07T03:20:13.075Z,98.9
2019-06-07T03:21:12.035Z,98.9
2019-06-07T03:22:11.234Z,99
2019-06-07T03:22:41.963Z,99
2019-06-07T03:23:12.508Z,99
2019-06-07T03:23:42.905Z,99
2019-06-07T03:24:13.305Z,99
2019-06-07T03:24:44.458Z,99
2019-06-07T03:26:08.191Z,99
2019-06-07T03:28:06.966Z,98.8
2019-06-07T03:29:05.938Z,98.9
2019-06-07T03:30:42.635Z,98.8
2019-06-07T03:31:04.789Z,98.9
2019-06-07T03:32:03.883Z,98.9
2019-06-07T03:33:02.968Z,99
2019-06-07T03:33:44.569Z,99
2019-06-07T03:34:43.641Z,99.1
2019-06-07T03:36:24.112Z,99.1
2019-06-07T03:36:34.709Z,99.1
2019-06-07T03:37:01.709Z,99.1
2019-06-07T03:37:59.245Z,99.2
2019-06-07T03:38:58.153Z,99.2
2019-06-07T03:39:57.542Z,99.1
2019-06-07T03:40:56.883Z,99.1
2019-06-07T03:42:08.550Z,99.1
2019-06-07T03:42:55.465Z,99.2
2019-06-07T03:43:54.754Z,99.2
2019-06-07T03:44:27.799Z,99.2
2019-06-07T03:45:53.060Z,99.2
2019-06-07T03:46:52.451Z,99.2
2019-06-07T03:47:52.801Z,99.2
2019-06-07T03:48:50.684Z,99.2
2019-06-07T03:49:50.002Z,99.2
2019-06-07T03:51:12.794Z,99.2
2019-06-07T03:51:40.517Z,99.2
2019-06-07T03:52:03.812Z,99.2
2019-06-07T03:52:47.673Z,99.4
2019-06-07T03:54:46.384Z,98.9
2019-06-07T03:55:45.511Z,98.9
2019-06-07T03:56:44.904Z,99
2019-06-07T03:58:34.486Z,98.9
2019-06-07T03:58:52.124Z,98.9
2019-06-07T03:59:42.131Z,99
2019-06-07T04:00:43.666Z,99
2019-06-07T04:01:41.578Z,98.9
2019-06-07T04:02:42.475Z,98.9
2019-06-07T04:03:51.555Z,99.1
2019-06-07T04:04:40.200Z,99.1
2019-06-07T04:05:43.772Z,99.1
2019-06-07T04:06:42.627Z,99.1
2019-06-07T04:07:44.065Z,99
2019-06-07T04:08:41.985Z,99
2019-06-07T04:09:42.613Z,99
2019-06-07T04:10:04.809Z,99
2019-06-07T04:10:59.987Z,99
2019-06-07T04:11:40.936Z,99
2019-06-07T04:12:06.481Z,99
2019-06-07T04:12:44.173Z,99.1
2019-06-07T04:13:41.519Z,99
2019-06-07T04:14:32.819Z,99
2019-06-07T04:15:33.524Z,98.9
2019-06-07T04:16:00.650Z,98.9
2019-06-07T04:16:40.352Z,98.8
2019-06-07T04:17:34.142Z,98.8
2019-06-07T04:18:05.322Z,98.8
2019-06-07T04:18:42.353Z,98.8
2019-06-07T04:19:31.447Z,98.9
2019-06-07T04:20:32.846Z,98.9
2019-06-07T04:20:58.139Z,98.9
2019-06-07T04:22:24.794Z,98.9
2019-06-07T04:23:32.834Z,98.9
2019-06-07T04:23:54.747Z,98.9
2019-06-07T04:24:25.034Z,98.8
2019-06-07T04:25:22.607Z,98.7
2019-06-07T04:26:21.897Z,98.8
2019-06-07T04:27:20.850Z,98.8
2019-06-07T04:28:20.146Z,98.8
2019-06-07T04:30:07.671Z,98.8
2019-06-07T04:30:42.379Z,98.8
2019-06-07T04:31:17.945Z,98.9
2019-06-07T04:31:48.559Z,98.9
2019-06-07T04:32:19.008Z,98.9
2019-06-07T04:32:49.397Z,98.9
2019-06-07T04:33:19.594Z,98.9
2019-06-07T04:34:15.642Z,98.9
2019-06-07T04:35:15.037Z,98.6
2019-06-07T04:36:14.360Z,98.5
2019-06-07T04:37:13.568Z,98.7
2019-06-07T04:38:12.454Z,98.8
2019-06-07T04:38:43.284Z,98.8
2019-06-07T04:39:13.306Z,98.8
2019-06-07T04:39:45.643Z,98.8
2019-06-07T04:40:14.103Z,98.9
2019-06-07T04:40:44.500Z,98.9
2019-06-07T04:41:15.001Z,98.8
2019-06-07T04:41:45.387Z,98.8
2019-06-07T04:42:15.679Z,98.6
2019-06-07T04:42:46.349Z,98.6
2019-06-07T04:44:07.995Z,98.2
2019-06-07T04:45:40.174Z,98.3
2019-06-07T04:45:53.184Z,98.3
2019-06-07T04:46:23.466Z,98.3
2019-06-07T04:47:05.931Z,98.4
2019-06-07T04:48:05.134Z,98.5
2019-06-07T04:48:43.289Z,98.5
2019-06-07T04:49:06.115Z,98.5
2019-06-07T04:49:43.872Z,98.5
2019-06-07T04:50:07.000Z,98.7
2019-06-07T04:50:43.840Z,98.7
2019-06-07T04:51:08.018Z,98.7
2019-06-07T04:51:42.393Z,98.7
2019-06-07T04:52:08.758Z,98.7
2019-06-07T04:52:45.669Z,98.7
2019-06-07T04:53:09.671Z,98.7
2019-06-07T04:53:43.588Z,98.7
2019-06-07T04:54:59.791Z,98.7
2019-06-07T04:55:59.188Z,98.5
2019-06-07T04:56:58.491Z,98.2
2019-06-07T04:57:57.285Z,98
2019-06-07T04:58:56.676Z,98
2019-06-07T05:00:34.097Z,98
2019-06-07T05:01:05.217Z,98
2019-06-07T05:01:42.688Z,98
2019-06-07T05:02:06.202Z,98
2019-06-07T05:02:43.221Z,98
2019-06-07T05:03:07.043Z,98
2019-06-07T05:03:44.379Z,98
2019-06-07T05:04:52.308Z,97.9
2019-06-07T05:05:51.606Z,97.6
2019-06-07T05:06:50.921Z,97.5
2019-06-07T05:07:50.198Z,97.6
2019-06-07T05:08:49.087Z,97.2
2019-06-07T05:09:48.281Z,97.1
2019-06-07T05:10:18.893Z,97.1
2019-06-07T05:10:49.475Z,96.9
2019-06-07T05:11:19.863Z,96.9
2019-06-07T05:11:50.272Z,96.7
2019-06-07T05:12:20.558Z,96.7
2019-06-07T05:12:50.939Z,97
2019-06-07T05:13:21.418Z,97
2019-06-07T05:14:44.705Z,97.1
2019-06-07T05:15:44.185Z,97.2
2019-06-07T05:16:44.770Z,97.3
2019-06-07T05:17:45.311Z,97.3
2019-06-07T05:18:43.556Z,97.3
2019-06-07T05:19:44.848Z,97.4
2019-06-07T05:20:44.679Z,97.5
2019-06-07T05:21:10.584Z,97.5
2019-06-07T05:22:05.006Z,97.5
2019-06-07T05:22:45.553Z,97.5
2019-06-07T05:23:55.636Z,97.5
2019-06-07T05:24:12.487Z,97.5
2019-06-07T05:24:44.352Z,97.5
2019-06-07T05:25:44.208Z,97.4
2019-06-07T05:26:40.943Z,97.4
2019-06-07T05:27:41.602Z,97.4
2019-06-07T05:28:05.370Z,97.4
2019-06-07T05:28:42.438Z,97.3
2019-06-07T05:29:40.987Z,97.5
2019-06-07T05:31:08.400Z,97.5
2019-06-07T05:31:45.097Z,97.3
2019-06-07T05:32:36.511Z,97.3
2019-06-07T05:33:38.174Z,97.2
2019-06-07T05:34:02.272Z,97.2
2019-06-07T05:34:36.831Z,97.2
2019-06-07T05:35:39.631Z,97.2
2019-06-07T05:36:28.432Z,97.2
2019-06-07T05:37:27.755Z,97.4
2019-06-07T05:38:26.654Z,97.3
2019-06-07T05:39:26.157Z,97.5
2019-06-07T05:40:25.453Z,97.4
2019-06-07T05:41:24.346Z,97
2019-06-07T05:42:23.734Z,97
2019-06-07T05:42:54.411Z,97
2019-06-07T05:43:24.808Z,96.6
2019-06-07T05:44:22.149Z,96.5
2019-06-07T05:45:21.353Z,96.7
2019-06-07T05:46:20.673Z,96.6
2019-06-07T05:47:19.920Z,96.5
2019-06-07T05:47:51.577Z,96.5
2019-06-07T05:48:21.405Z,96.1
2019-06-07T05:49:18.461Z,96.1
2019-06-07T05:50:47.872Z,96.4
2019-06-07T05:50:59.460Z,96.4
2019-06-07T05:51:29.738Z,96.2
2019-06-07T05:53:15.625Z,96.5
2019-06-07T05:54:15.018Z,96.5
2019-06-07T05:55:13.947Z,95.9
2019-06-07T05:56:14.919Z,96
2019-06-07T05:57:12.743Z,96.1
2019-06-07T05:57:51.172Z,96.1
2019-06-07T05:58:13.504Z,96
2019-06-07T05:58:45.021Z,96
2019-06-07T05:59:14.413Z,96.1
2019-06-07T05:59:47.858Z,96.1
2019-06-07T06:00:15.312Z,96.2
2019-06-07T06:01:53.000Z,96.2
2019-06-07T06:02:26.559Z,96.2
2019-06-07T06:03:08.141Z,95.9
2019-06-07T06:04:07.324Z,96
2019-06-07T06:05:06.756Z,95.6
2019-06-07T06:06:06.195Z,95.9
2019-06-07T06:07:05.493Z,95.7
2019-06-07T06:07:45.147Z,95.7
2019-06-07T06:08:41.816Z,95.6
2019-06-07T06:09:14.435Z,95.5
2019-06-07T06:09:38.427Z,95.5
2019-06-07T06:11:02.059Z,95.5
2019-06-07T06:12:02.767Z,95.1
2019-06-07T06:13:00.686Z,95
2019-06-07T06:14:08.625Z,94.9
2019-06-07T06:14:59.529Z,94.6
2019-06-07T06:16:02.668Z,95.2
2019-06-07T06:16:57.920Z,95.1
2019-06-07T06:17:28.530Z,95.1
2019-06-07T06:17:58.920Z,95.1
2019-06-07T06:18:29.332Z,95.1
2019-06-07T06:18:59.822Z,95.1
2019-06-07T06:19:30.102Z,95.1
2019-06-07T06:20:00.298Z,92.6
2019-06-07T06:21:00.711Z,92.6
2019-06-07T06:21:22.585Z,92.6
2019-06-07T06:21:52.876Z,92.6
2019-06-07T06:22:53.863Z,88.7
2019-06-07T06:23:54.343Z,89.7
2019-06-07T06:25:33.317Z,87.9
2019-06-07T06:25:56.868Z,87.9
2019-06-07T06:26:14.046Z,87.9
2019-06-07T06:27:15.176Z,89
2019-06-07T06:28:17.117Z,89
2019-06-07T06:28:50.170Z,87.1
2019-06-07T06:29:19.590Z,87.1
2019-06-07T06:29:52.582Z,85.2
2019-06-07T06:30:20.450Z,85.2
2019-06-07T06:30:50.762Z,86.9
2019-06-07T06:31:21.237Z,86.9
2019-06-07T06:32:58.354Z,86
2019-06-07T06:33:34.915Z,86
2019-06-07T06:33:50.321Z,85
2019-06-07T06:34:53.388Z,85.8
2019-06-07T06:35:50.549Z,86
2019-06-07T06:36:50.249Z,86.2
2019-06-07T06:37:14.026Z,86.2
2019-06-07T06:37:53.162Z,86.2
2019-06-07T06:38:14.782Z,86.2
2019-06-07T06:38:51.507Z,86.1
2019-06-07T06:39:15.588Z,86.1
2019-06-07T06:39:50.297Z,83.6
2019-06-07T06:40:16.699Z,83.6
2019-06-07T06:41:12.090Z,84.9
2019-06-07T06:43:46.267Z,86.1
2019-06-07T06:44:09.067Z,86.1
2019-06-07T06:44:44.383Z,84.8
2019-06-07T06:45:37.998Z,85.8
2019-06-07T06:46:47.118Z,83.9
2019-06-07T06:47:35.521Z,82.7
2019-06-07T06:48:06.111Z,82.7
2019-06-07T06:48:36.495Z,84.2
2019-06-07T06:49:06.885Z,84.2
2019-06-07T06:49:42.063Z,83.6
2019-06-07T06:50:39.007Z,80.1
2019-06-07T06:51:08.716Z,80.1
2019-06-07T06:52:31.948Z,77.5
2019-06-07T06:53:31.336Z,76.8
2019-06-07T06:54:48.656Z,77.7
2019-06-07T06:55:02.932Z,77.7
2019-06-07T06:55:33.109Z,78.9
2019-06-07T06:56:29.088Z,79.4
2019-06-07T06:57:28.495Z,79.6
2019-06-07T06:58:27.882Z,78.4
2019-06-07T06:59:39.486Z,78.4
2019-06-07T06:59:53.766Z,78.4
2019-06-07T07:00:52.229Z,80.2
2019-06-07T07:01:08.869Z,80.2
2019-06-07T07:02:24.855Z,81.3
2019-06-07T07:04:23.682Z,79.9
2019-06-07T07:05:22.881Z,78.9
2019-06-07T07:06:27.209Z,80.8
2019-06-07T07:07:21.602Z,80.4
2019-06-07T07:08:20.806Z,78.2
2019-06-07T07:09:20.192Z,79.3
2019-06-07T07:09:59.483Z,79.3
2019-06-07T07:10:21.063Z,79.3
2019-06-07T07:10:55.114Z,79.3
2019-06-07T07:12:18.128Z,76.2
2019-06-07T07:13:17.066Z,74.4
2019-06-07T07:14:16.919Z,74.4
2019-06-07T07:15:16.214Z,73.9
2019-06-07T07:16:15.511Z,74.6
2019-06-07T07:17:14.408Z,74.1
2019-06-07T07:18:13.791Z,74.6
2019-06-07T07:19:13.180Z,75.2
2019-06-07T07:20:12.565Z,76.3
2019-06-07T07:20:47.633Z,76.3
2019-06-07T07:21:13.593Z,77.2
2019-06-07T07:21:50.518Z,77.2
2019-06-07T07:22:14.576Z,78.1
2019-06-07T07:23:10.556Z,78.4
2019-06-07T07:24:22.473Z,78
2019-06-07T07:25:08.905Z,73.6
2019-06-07T07:26:08.198Z,70.8
2019-06-07T07:27:07.492Z,72.5
2019-06-07T07:28:06.889Z,72.9
2019-06-07T07:29:06.362Z,73.1
2019-06-07T07:30:37.407Z,73.3
2019-06-07T07:31:10.246Z,73.8
2019-06-07T07:32:04.280Z,73.5
2019-06-07T07:33:07.132Z,73.8
2019-06-07T07:34:36.427Z,74.5
2019-06-07T07:35:09.765Z,74.6
2019-06-07T07:36:38.543Z,73.6
2019-06-07T07:36:44.720Z,73.6
2019-06-07T07:38:00.638Z,74
2019-06-07T07:39:06.321Z,75.3
2019-06-07T07:40:56.024Z,75.2
2019-06-07T07:41:17.489Z,75.2
2019-06-07T07:42:21.665Z,75.3
2019-06-07T07:42:58.107Z,75.3
2019-06-07T07:44:07.644Z,75.7
2019-06-07T07:44:57.027Z,76.7
2019-06-07T07:46:03.089Z,74.8
2019-06-07T07:46:31.930Z,74.8
2019-06-07T07:47:02.338Z,75.8
2019-06-07T07:48:17.953Z,76.1
2019-06-07T07:48:56.395Z,76.7
2019-06-07T07:49:58.597Z,76.9
2019-06-07T07:51:00.747Z,76.6
2019-06-07T07:51:58.903Z,76.7
2019-06-07T07:53:00.895Z,75.8
2019-06-07T07:53:20.480Z,75.8
2019-06-07T07:54:10.960Z,75.6
2019-06-07T07:54:57.871Z,74.9
2019-06-07T07:55:54.774Z,74.3
2019-06-07T07:56:18.456Z,74.3
2019-06-07T07:56:51.586Z,73.3
2019-06-07T07:57:18.951Z,73.3
2019-06-07T07:58:01.358Z,73
2019-06-07T07:58:19.819Z,73
2019-06-07T08:00:48.453Z,74.8
2019-06-07T08:01:12.659Z,74.8
2019-06-07T08:01:43.197Z,74.8
2019-06-07T08:02:43.282Z,75.5
2019-06-07T08:03:42.575Z,75.6
2019-06-07T08:05:23.158Z,74.6
2019-06-07T08:05:57.155Z,74.6
2019-06-07T08:06:40.538Z,75.3
2019-06-07T08:07:11.028Z,75.3
2019-06-07T08:07:41.493Z,75.9
2019-06-07T08:08:11.671Z,75.9
2019-06-07T08:08:42.010Z,75
2019-06-07T08:09:12.403Z,75
2019-06-07T08:10:37.545Z,75.1
2019-06-07T08:11:36.937Z,74.4
2019-06-07T08:13:21.918Z,74.9
2019-06-07T08:13:29.605Z,74.9
2019-06-07T08:14:34.691Z,73.1
2019-06-07T08:15:34.023Z,73.9
2019-06-07T08:16:16.444Z,73.9
2019-06-07T08:16:35.219Z,74.4
2019-06-07T08:17:05.499Z,74.4
2019-06-07T08:17:35.892Z,75.9
2019-06-07T08:18:06.423Z,75.9
2019-06-07T08:18:36.805Z,76
2019-06-07T08:19:07.194Z,76
2019-06-07T08:19:37.580Z,74.3
2019-06-07T08:20:07.997Z,74.3
2019-06-07T08:21:30.227Z,71.4
2019-06-07T08:22:29.426Z,70.5
2019-06-07T08:23:28.677Z,69.5
2019-06-07T08:24:28.014Z,69.5
2019-06-07T08:25:27.462Z,71.3
2019-06-07T08:26:26.789Z,71.9
2019-06-07T08:27:26.203Z,71.9
2019-06-07T08:27:59.539Z,71.9
2019-06-07T08:28:29.977Z,72.5
2019-06-07T08:29:03.452Z,72.5
2019-06-07T08:29:54.209Z,72.9
2019-06-07T08:31:08.434Z,72.9
2019-06-07T08:32:22.955Z,69.2
2019-06-07T08:33:27.267Z,68.9
2019-06-07T08:34:21.572Z,70.6
2019-06-07T08:36:14.941Z,71.9
2019-06-07T08:36:43.948Z,71.9
2019-06-07T08:37:19.492Z,68.8
2019-06-07T08:38:47.318Z,68.8
2019-06-07T08:39:09.042Z,68.8
2019-06-07T08:39:39.552Z,69.7
2019-06-07T08:40:17.568Z,70.5
2019-06-07T08:41:04.450Z,70.5
2019-06-07T08:42:36.786Z,69.3
2019-06-07T08:44:25.663Z,70.7
2019-06-07T08:45:14.476Z,68.7
2019-06-07T08:46:13.906Z,70.4
2019-06-07T08:47:21.368Z,69
2019-06-07T08:48:29.881Z,67.3
2019-06-07T08:48:42.908Z,67.3
2019-06-07T08:49:13.192Z,67.5
2019-06-07T08:49:43.593Z,67.5
2019-06-07T08:50:14.105Z,68.7
2019-06-07T08:50:44.495Z,68.7
2019-06-07T08:52:12.872Z,71.3
2019-06-07T08:54:23.515Z,67.5
2019-06-07T08:55:07.927Z,67.8
2019-06-07T08:57:21.849Z,69
2019-06-07T08:58:09.154Z,69.5
2019-06-07T08:59:11.849Z,70.6
2019-06-07T08:59:35.970Z,70.6
2019-06-07T09:00:46.468Z,70.7
2019-06-07T09:02:23.579Z,69
2019-06-07T09:02:33.881Z,69
2019-06-07T09:04:11.273Z,70.8
2019-06-07T09:05:12.704Z,70.9
2019-06-07T09:07:01.566Z,68.7
2019-06-07T09:07:23.564Z,68.7
2019-06-07T09:08:30.240Z,71.2
2019-06-07T09:10:12.764Z,69.6
2019-06-07T09:10:29.134Z,69.6
2019-06-07T09:12:07.076Z,71.5
2019-06-07T09:12:27.625Z,71.5
2019-06-07T09:13:10.094Z,66.1
2019-06-07T09:13:28.390Z,66.1
2019-06-07T09:14:08.982Z,67.2
2019-06-07T09:15:20.117Z,69.5
2019-06-07T09:17:04.410Z,66.2
2019-06-07T09:17:23.994Z,66.2
2019-06-07T09:18:42.651Z,68.7
2019-06-07T09:18:46.997Z,68.7
2019-06-07T09:19:52.004Z,69.9
2019-06-07T09:20:51.269Z,66.3
2019-06-07T09:21:21.879Z,66.3
2019-06-07T09:21:52.388Z,66.2
2019-06-07T09:22:50.081Z,66.7
2019-06-07T09:23:49.781Z,68.3
2019-06-07T09:24:48.814Z,69.3
2019-06-07T09:26:06.273Z,65
2019-06-07T09:26:20.581Z,65
2019-06-07T09:26:50.994Z,66.3
2019-06-07T09:27:21.504Z,66.3
2019-06-07T09:27:51.955Z,67
2019-06-07T09:28:46.230Z,66.8
2019-06-07T09:29:45.673Z,67.5
2019-06-07T09:30:45.034Z,66
2019-06-07T09:31:53.790Z,69.1
2019-06-07T09:32:18.798Z,69.1
2019-06-07T09:32:45.477Z,68.3
2019-06-07T09:33:43.569Z,69.3
2019-06-07T09:34:42.863Z,69.2
2019-06-07T09:35:41.887Z,68.6
2019-06-07T09:36:13.803Z,68.6
2019-06-07T09:36:42.456Z,69.3
2019-06-07T09:38:12.466Z,69.3
2019-06-07T09:38:28.488Z,69.3
2019-06-07T09:39:39.448Z,69.3
2019-06-07T09:40:38.794Z,67.2
2019-06-07T09:41:50.384Z,67
2019-06-07T09:42:37.828Z,68.9
2019-06-07T09:44:21.007Z,68.5
2019-06-07T09:44:28.412Z,68.5
2019-06-07T09:45:08.243Z,69.1
2019-06-07T09:45:35.843Z,68.5
2019-06-07T09:46:15.919Z,68.5
2019-06-07T09:46:36.836Z,68.6
2019-06-07T09:47:32.755Z,68.6
2019-06-07T09:48:23.786Z,68.6
2019-06-07T09:49:34.844Z,68.6
2019-06-07T09:50:32.959Z,69.2
2019-06-07T09:51:32.247Z,69.4
2019-06-07T09:52:31.648Z,69.3
2019-06-07T09:53:23.863Z,69.3
2019-06-07T09:55:19.421Z,67.7
2019-06-07T09:55:27.187Z,67.7
2019-06-07T09:56:08.365Z,68.3
2019-06-07T09:56:27.809Z,68.3
2019-06-07T09:57:05.216Z,68.3
2019-06-07T09:58:50.014Z,68.2
2019-06-07T09:58:58.048Z,68.2
2019-06-07T10:00:42.719Z,68.2
2019-06-07T10:01:03.940Z,68.2
2019-06-07T10:05:23.494Z,69.3
2019-06-07T10:10:09.771Z,67.7
2019-06-07T10:11:05.077Z,67.7
2019-06-07T10:12:19.267Z,67.7
2019-06-07T10:13:18.688Z,68.7
2019-06-07T10:14:18.086Z,68.5
2019-06-07T10:15:17.510Z,68.6
2019-06-07T10:16:16.998Z,68.7
2019-06-07T10:16:48.949Z,68.7
2019-06-07T10:17:17.485Z,68.3
2019-06-07T10:17:48.006Z,68.3
2019-06-07T10:18:18.408Z,68.4
2019-06-07T10:18:48.860Z,68.4
2019-06-07T10:19:19.267Z,68.7
2019-06-07T10:19:49.812Z,68.7
2019-06-07T10:22:13.467Z,65.2
2019-06-07T10:25:11.643Z,63.3
2019-06-07T10:27:10.452Z,64.3
2019-06-07T10:27:41.115Z,64.3
2019-06-07T10:28:11.599Z,66.8
2019-06-07T10:28:41.982Z,66.8
2019-06-07T10:29:12.378Z,67
2019-06-07T10:29:42.791Z,67
2019-06-07T10:30:13.202Z,66.5
2019-06-07T10:30:43.604Z,66.5
2019-06-07T10:31:14.258Z,66.6
2019-06-07T10:31:44.785Z,66.6
2019-06-07T10:33:08.475Z,66.5
2019-06-07T10:35:09.334Z,63.7
2019-06-07T10:36:05.040Z,65.8
2019-06-07T10:40:03.187Z,67.2
2019-06-07T10:40:33.075Z,67.2
2019-06-07T10:41:03.359Z,67.8
2019-06-07T10:41:33.896Z,67.8
2019-06-07T10:42:07.613Z,67
2019-06-07T10:42:34.846Z,67
2019-06-07T10:44:59.476Z,68
2019-06-07T10:45:59.106Z,66.1
2019-06-07T10:47:57.853Z,67
2019-06-07T10:48:57.372Z,66.1
2019-06-07T10:49:27.764Z,66.1
2019-06-07T10:49:58.140Z,66.8
2019-06-07T10:50:28.681Z,66.8
2019-06-07T10:55:53.038Z,66.4
2019-06-07T10:57:51.847Z,67.1
2019-06-07T10:59:50.550Z,67.5
2019-06-07T11:00:21.334Z,67.5
2019-06-07T11:01:49.597Z,65.8
2019-06-07T11:03:48.326Z,68.3
2019-06-07T11:04:47.730Z,66.3
2019-06-07T11:05:47.049Z,65.9
2019-06-07T11:06:46.565Z,64.4
2019-06-07T11:08:45.764Z,65.1
2019-06-07T11:10:44.548Z,64.4
2019-06-07T11:12:43.390Z,64.5
2019-06-07T11:14:42.092Z,60.8
2019-06-07T11:15:41.514Z,63.7
2019-06-07T11:17:40.216Z,65
2019-06-07T11:18:39.518Z,64
2019-06-07T11:19:38.939Z,63.3
2019-06-07T11:20:38.766Z,64.9
2019-06-07T11:21:38.182Z,65.3
2019-06-07T11:22:37.588Z,64.3
2019-06-07T11:23:36.874Z,62.9
2019-06-07T11:24:36.175Z,63
2019-06-07T11:25:35.384Z,65.5
2019-06-07T11:26:35.189Z,66.3
2019-06-07T11:27:09.162Z,66.3
2019-06-07T11:27:35.829Z,66.5
2019-06-07T11:28:06.628Z,66.5
2019-06-07T11:28:36.941Z,66.3
2019-06-07T11:29:10.739Z,66.3
2019-06-07T11:29:37.923Z,66.9
2019-06-07T11:30:32.976Z,66.1
2019-06-07T11:31:32.168Z,65.9
2019-06-07T11:33:30.967Z,64.8
2019-06-07T11:34:30.360Z,64.5
2019-06-07T11:35:30.017Z,63.4
2019-06-07T11:36:29.369Z,62.7
2019-06-07T11:36:59.604Z,62.7
2019-06-07T11:37:29.881Z,62.1
2019-06-07T11:38:00.265Z,62.1
2019-06-07T11:38:30.771Z,65.9
2019-06-07T11:39:01.207Z,65.9
2019-06-07T11:40:36.175Z,63.6
2019-06-07T11:40:57.267Z,63.6
2019-06-07T11:41:27.651Z,66.1
2019-06-07T11:42:25.758Z,65.7
2019-06-07T11:43:25.053Z,63.8
2019-06-07T11:44:24.862Z,64.7
2019-06-07T11:45:24.298Z,63
2019-06-07T11:46:23.299Z,66